WLW1005 LEMG-LPPT
Flight info
| Callsign | WLW1005 |
|---|---|
| Flight time | 0h 54m |
| Altitude | 31000 |
| Route | SVL N747 ONUBA DCT NAPES DCT OSLEP DCT MINTA/N0471F300 DCT VATZI |
| Aircraft | B38M/M-SDE1FGHILORVWXY/HB1 |
Departure
| Time | 2026-05-07 17:43 |
|---|---|
| Airport | Málaga-Costa del Sol Airport (LEMG) |
Arrival
| Time | 2026-05-07 18:37 |
|---|---|
| Airport | Lisbon Humberto Delgado Airport (LPPT) |
| Time | Latitude | Longitude | Altitude | Speed | Heading |
|---|---|---|---|---|---|
| 2026-05-07 17:06 | 36.67734 | -4.49579 | 44 ft | 0 kts | 41° |
| 2026-05-07 17:31 | 36.67733 | -4.49579 | 44 ft | 2 kts | 42° |
| 2026-05-07 17:31 | 36.67714 | -4.49594 | 42 ft | 4 kts | 1° |
| 2026-05-07 17:32 | 36.67693 | -4.49582 | 43 ft | 4 kts | 314° |
| 2026-05-07 17:32 | 36.67684 | -4.49571 | 43 ft | 1 kts | 312° |
| 2026-05-07 17:32 | 36.67684 | -4.49570 | 43 ft | 0 kts | 312° |
| 2026-05-07 17:37 | 36.67687 | -4.49575 | 42 ft | 2 kts | 306° |
| 2026-05-07 17:37 | 36.67697 | -4.49612 | 43 ft | 8 kts | 286° |
| 2026-05-07 17:37 | 36.67726 | -4.49689 | 42 ft | 12 kts | 304° |
| 2026-05-07 17:37 | 36.67781 | -4.49775 | 44 ft | 13 kts | 310° |
| 2026-05-07 17:38 | 36.67800 | -4.49846 | 45 ft | 0 kts | 258° |
| 2026-05-07 17:38 | 36.67798 | -4.49855 | 45 ft | 2 kts | 257° |
| 2026-05-07 17:38 | 36.67798 | -4.49882 | 45 ft | 4 kts | 279° |
| 2026-05-07 17:38 | 36.67818 | -4.49929 | 43 ft | 9 kts | 307° |
| 2026-05-07 17:39 | 36.67869 | -4.50003 | 45 ft | 14 kts | 312° |
| 2026-05-07 17:39 | 36.67909 | -4.50107 | 45 ft | 14 kts | 258° |
| 2026-05-07 17:39 | 36.67912 | -4.50210 | 45 ft | 10 kts | 302° |
| 2026-05-07 17:39 | 36.67964 | -4.50283 | 47 ft | 13 kts | 310° |
| 2026-05-07 17:40 | 36.68027 | -4.50370 | 46 ft | 15 kts | 314° |
| 2026-05-07 17:40 | 36.68103 | -4.50472 | 46 ft | 17 kts | 311° |
| 2026-05-07 17:40 | 36.68185 | -4.50588 | 47 ft | 19 kts | 311° |
| 2026-05-07 17:40 | 36.68274 | -4.50713 | 47 ft | 20 kts | 313° |
| 2026-05-07 17:41 | 36.68368 | -4.50844 | 51 ft | 20 kts | 310° |
| 2026-05-07 17:41 | 36.68464 | -4.50977 | 54 ft | 19 kts | 310° |
| 2026-05-07 17:41 | 36.68502 | -4.51076 | 56 ft | 12 kts | 257° |
| 2026-05-07 17:41 | 36.68444 | -4.51128 | 62 ft | 9 kts | 195° |
| 2026-05-07 17:42 | 36.68382 | -4.51134 | 63 ft | 10 kts | 160° |
| 2026-05-07 17:42 | 36.68318 | -4.51066 | 59 ft | 16 kts | 132° |
| 2026-05-07 17:42 | 36.68123 | -4.50793 | 56 ft | 82 kts | 132° |
| 2026-05-07 17:42 | 36.67574 | -4.50028 | 53 ft | 155 kts | 131° |
| 2026-05-07 17:43 | 36.66774 | -4.48922 | 564 ft | 180 kts | 131° |
| 2026-05-07 17:43 | 36.65936 | -4.47730 | 1528 ft | 186 kts | 132° |
| 2026-05-07 17:43 | 36.65074 | -4.46487 | 2315 ft | 197 kts | 133° |
| 2026-05-07 17:43 | 36.64139 | -4.45151 | 2904 ft | 211 kts | 134° |
| 2026-05-07 17:44 | 36.63107 | -4.43771 | 3505 ft | 226 kts | 140° |
| 2026-05-07 17:44 | 36.61705 | -4.42720 | 3919 ft | 247 kts | 166° |
| 2026-05-07 17:44 | 36.60013 | -4.42463 | 4890 ft | 241 kts | 180° |
| 2026-05-07 17:44 | 36.58362 | -4.42546 | 5956 ft | 240 kts | 193° |
| 2026-05-07 17:45 | 36.56757 | -4.43317 | 6580 ft | 253 kts | 208° |
| 2026-05-07 17:45 | 36.55261 | -4.44303 | 7710 ft | 242 kts | 210° |
| 2026-05-07 17:45 | 36.53795 | -4.45313 | 8651 ft | 245 kts | 214° |
| 2026-05-07 17:45 | 36.52521 | -4.46784 | 9174 ft | 260 kts | 238° |
| 2026-05-07 17:46 | 36.51811 | -4.48836 | 10039 ft | 256 kts | 255° |
| 2026-05-07 17:46 | 36.51351 | -4.50935 | 11057 ft | 250 kts | 255° |
| 2026-05-07 17:46 | 36.50834 | -4.53012 | 11796 ft | 258 kts | 253° |
| 2026-05-07 17:46 | 36.50683 | -4.55289 | 12211 ft | 275 kts | 279° |
| 2026-05-07 17:47 | 36.51051 | -4.57692 | 12639 ft | 293 kts | 278° |
| 2026-05-07 17:47 | 36.51360 | -4.60248 | 12976 ft | 313 kts | 277° |
| 2026-05-07 17:47 | 36.51684 | -4.63017 | 13298 ft | 333 kts | 277° |
| 2026-05-07 17:47 | 36.52019 | -4.65937 | 13698 ft | 349 kts | 277° |
| 2026-05-07 17:48 | 36.52473 | -4.68946 | 14158 ft | 360 kts | 281° |
| 2026-05-07 17:48 | 36.52973 | -4.72002 | 14893 ft | 361 kts | 280° |
| 2026-05-07 17:48 | 36.53465 | -4.75070 | 15653 ft | 362 kts | 280° |
| 2026-05-07 17:48 | 36.53950 | -4.78131 | 16371 ft | 363 kts | 279° |
| 2026-05-07 17:49 | 36.54438 | -4.81216 | 17125 ft | 364 kts | 279° |
| 2026-05-07 17:49 | 36.54926 | -4.84312 | 17816 ft | 366 kts | 279° |
| 2026-05-07 17:49 | 36.55416 | -4.87432 | 18441 ft | 369 kts | 279° |
| 2026-05-07 17:49 | 36.55910 | -4.90573 | 19020 ft | 371 kts | 279° |
| 2026-05-07 17:50 | 36.56588 | -4.93682 | 19605 ft | 374 kts | 285° |
| 2026-05-07 17:50 | 36.57341 | -4.96793 | 20157 ft | 378 kts | 284° |
| 2026-05-07 17:50 | 36.58089 | -4.99946 | 20625 ft | 382 kts | 284° |
| 2026-05-07 17:50 | 36.58832 | -5.03128 | 21154 ft | 384 kts | 284° |
| 2026-05-07 17:51 | 36.59573 | -5.06315 | 21676 ft | 386 kts | 284° |
| 2026-05-07 17:51 | 36.60308 | -5.09497 | 22191 ft | 389 kts | 284° |
| 2026-05-07 17:51 | 36.61059 | -5.12749 | 22696 ft | 393 kts | 283° |
| 2026-05-07 17:51 | 36.61813 | -5.16022 | 23211 ft | 395 kts | 283° |
| 2026-05-07 17:52 | 36.62573 | -5.19324 | 23655 ft | 399 kts | 283° |
| 2026-05-07 17:52 | 36.63338 | -5.22653 | 24128 ft | 400 kts | 283° |
| 2026-05-07 17:52 | 36.64105 | -5.25991 | 24569 ft | 402 kts | 283° |
| 2026-05-07 17:52 | 36.64871 | -5.29337 | 25023 ft | 403 kts | 284° |
| 2026-05-07 17:53 | 36.65645 | -5.32710 | 25427 ft | 406 kts | 283° |
| 2026-05-07 17:53 | 36.66410 | -5.36054 | 25790 ft | 410 kts | 283° |
| 2026-05-07 17:53 | 36.67499 | -5.39344 | 26223 ft | 417 kts | 297° |
| 2026-05-07 17:53 | 36.69339 | -5.42179 | 26682 ft | 427 kts | 313° |
| 2026-05-07 17:54 | 36.71789 | -5.44326 | 27120 ft | 438 kts | 327° |
| 2026-05-07 17:54 | 36.74542 | -5.46007 | 27533 ft | 441 kts | 328° |
| 2026-05-07 17:54 | 36.77317 | -5.47671 | 27865 ft | 445 kts | 329° |
| 2026-05-07 17:54 | 36.80123 | -5.49325 | 28278 ft | 447 kts | 329° |
| 2026-05-07 17:55 | 36.82947 | -5.50970 | 28594 ft | 450 kts | 329° |
| 2026-05-07 17:55 | 36.85791 | -5.52619 | 28970 ft | 451 kts | 329° |
| 2026-05-07 17:55 | 36.88639 | -5.54268 | 29322 ft | 454 kts | 329° |
| 2026-05-07 17:55 | 36.91515 | -5.55934 | 29613 ft | 457 kts | 329° |
| 2026-05-07 17:56 | 36.94366 | -5.57586 | 30005 ft | 458 kts | 329° |
| 2026-05-07 17:56 | 36.97251 | -5.59259 | 30422 ft | 456 kts | 329° |
| 2026-05-07 17:56 | 37.00126 | -5.60927 | 30802 ft | 456 kts | 329° |
| 2026-05-07 17:56 | 37.03000 | -5.62596 | 30902 ft | 453 kts | 328° |
| 2026-05-07 17:57 | 37.07732 | -5.65348 | 30909 ft | 451 kts | 328° |
| 2026-05-07 17:57 | 37.14361 | -5.69209 | 30904 ft | 448 kts | 329° |
| 2026-05-07 17:58 | 37.20088 | -5.72244 | 30880 ft | 460 kts | 341° |
| 2026-05-07 17:58 | 37.26516 | -5.73449 | 30895 ft | 469 kts | 345° |
| 2026-05-07 17:59 | 37.32626 | -5.75677 | 30886 ft | 447 kts | 323° |
| 2026-05-07 17:59 | 37.35059 | -5.77983 | 30902 ft | 436 kts | 309° |
| 2026-05-07 17:59 | 37.36938 | -5.80904 | 30884 ft | 425 kts | 297° |
| 2026-05-07 18:00 | 37.38195 | -5.84169 | 30886 ft | 419 kts | 286° |
| 2026-05-07 18:00 | 37.38906 | -5.87700 | 30895 ft | 416 kts | 278° |
| 2026-05-07 18:00 | 37.39022 | -5.94846 | 30895 ft | 413 kts | 262° |
| 2026-05-07 18:01 | 37.38077 | -6.01969 | 30898 ft | 413 kts | 259° |
| 2026-05-07 18:01 | 37.36898 | -6.09024 | 30913 ft | 413 kts | 258° |
| 2026-05-07 18:02 | 37.35019 | -6.19560 | 30910 ft | 414 kts | 257° |
| 2026-05-07 18:03 | 37.33743 | -6.26609 | 30904 ft | 414 kts | 257° |
| 2026-05-07 18:03 | 37.32464 | -6.33655 | 30904 ft | 414 kts | 257° |
| 2026-05-07 18:04 | 37.31181 | -6.40687 | 30914 ft | 414 kts | 257° |
| 2026-05-07 18:04 | 37.29893 | -6.47733 | 30894 ft | 414 kts | 256° |
| 2026-05-07 18:05 | 37.28604 | -6.54748 | 30908 ft | 416 kts | 256° |
| 2026-05-07 18:05 | 37.27301 | -6.61818 | 30910 ft | 416 kts | 256° |
| 2026-05-07 18:06 | 37.25997 | -6.68870 | 30912 ft | 416 kts | 256° |
| 2026-05-07 18:06 | 37.24684 | -6.75941 | 30909 ft | 416 kts | 256° |
| 2026-05-07 18:07 | 37.23377 | -6.82959 | 30909 ft | 416 kts | 256° |
| 2026-05-07 18:07 | 37.22056 | -6.90021 | 30912 ft | 417 kts | 256° |
| 2026-05-07 18:08 | 37.20728 | -6.97099 | 30910 ft | 417 kts | 256° |
| 2026-05-07 18:08 | 37.19396 | -7.04165 | 30903 ft | 417 kts | 256° |
| 2026-05-07 18:09 | 37.18055 | -7.11234 | 30910 ft | 417 kts | 256° |
| 2026-05-07 18:09 | 37.16721 | -7.18253 | 30902 ft | 417 kts | 256° |
| 2026-05-07 18:10 | 37.15377 | -7.25321 | 30901 ft | 417 kts | 255° |
| 2026-05-07 18:10 | 37.14029 | -7.32379 | 30910 ft | 417 kts | 255° |
| 2026-05-07 18:11 | 37.13676 | -7.39594 | 30902 ft | 425 kts | 279° |
| 2026-05-07 18:11 | 37.15670 | -7.46650 | 30891 ft | 431 kts | 286° |
| 2026-05-07 18:12 | 37.17873 | -7.53656 | 30895 ft | 432 kts | 287° |
| 2026-05-07 18:12 | 37.20099 | -7.60587 | 30900 ft | 432 kts | 287° |
| 2026-05-07 18:13 | 37.22370 | -7.67602 | 30867 ft | 434 kts | 287° |
| 2026-05-07 18:13 | 37.24621 | -7.74639 | 30902 ft | 435 kts | 287° |
| 2026-05-07 18:14 | 37.26879 | -7.81681 | 30905 ft | 435 kts | 287° |
| 2026-05-07 18:14 | 37.29115 | -7.88674 | 30905 ft | 435 kts | 287° |
| 2026-05-07 18:15 | 37.31362 | -7.95715 | 30912 ft | 435 kts | 287° |
| 2026-05-07 18:15 | 37.33609 | -8.02770 | 30907 ft | 435 kts | 287° |
| 2026-05-07 18:16 | 37.35850 | -8.09829 | 30919 ft | 435 kts | 287° |
| 2026-05-07 18:16 | 37.37708 | -8.15695 | 30921 ft | 434 kts | 287° |
| 2026-05-07 18:17 | 37.39936 | -8.22741 | 30924 ft | 434 kts | 287° |
| 2026-05-07 18:17 | 37.42163 | -8.29804 | 30931 ft | 434 kts | 287° |
| 2026-05-07 18:18 | 37.44389 | -8.36882 | 30793 ft | 436 kts | 287° |
| 2026-05-07 18:18 | 37.45504 | -8.40432 | 30565 ft | 437 kts | 287° |
| 2026-05-07 18:18 | 37.46620 | -8.43991 | 30340 ft | 438 kts | 287° |
| 2026-05-07 18:18 | 37.47740 | -8.47566 | 30117 ft | 440 kts | 287° |
| 2026-05-07 18:19 | 37.48843 | -8.51092 | 29769 ft | 438 kts | 287° |
| 2026-05-07 18:19 | 37.49965 | -8.54684 | 28455 ft | 446 kts | 287° |
| 2026-05-07 18:19 | 37.51107 | -8.58346 | 27399 ft | 451 kts | 287° |
| 2026-05-07 18:19 | 37.52245 | -8.61997 | 26844 ft | 444 kts | 287° |
| 2026-05-07 18:20 | 37.53364 | -8.65594 | 26210 ft | 439 kts | 287° |
| 2026-05-07 18:20 | 37.54468 | -8.69143 | 25829 ft | 430 kts | 287° |
| 2026-05-07 18:20 | 37.55540 | -8.72596 | 25602 ft | 418 kts | 287° |
| 2026-05-07 18:20 | 37.56587 | -8.75968 | 25352 ft | 407 kts | 287° |
| 2026-05-07 18:21 | 37.57598 | -8.79232 | 25134 ft | 397 kts | 287° |
| 2026-05-07 18:21 | 37.58670 | -8.82403 | 24814 ft | 394 kts | 294° |
| 2026-05-07 18:21 | 37.60351 | -8.85169 | 24332 ft | 403 kts | 312° |
| 2026-05-07 18:21 | 37.62623 | -8.87164 | 24020 ft | 407 kts | 329° |
| 2026-05-07 18:22 | 37.65302 | -8.88443 | 23572 ft | 415 kts | 337° |
| 2026-05-07 18:22 | 37.67154 | -8.89235 | 23015 ft | 418 kts | 337° |
| 2026-05-07 18:22 | 37.70848 | -8.90781 | 22041 ft | 423 kts | 338° |
| 2026-05-07 18:22 | 37.73640 | -8.91928 | 21534 ft | 421 kts | 338° |
| 2026-05-07 18:23 | 37.76420 | -8.93064 | 20985 ft | 419 kts | 338° |
| 2026-05-07 18:23 | 37.79183 | -8.94191 | 20435 ft | 418 kts | 338° |
| 2026-05-07 18:23 | 37.81949 | -8.95319 | 19877 ft | 418 kts | 338° |
| 2026-05-07 18:23 | 37.84720 | -8.96450 | 19322 ft | 418 kts | 338° |
| 2026-05-07 18:24 | 37.87445 | -8.97563 | 18766 ft | 417 kts | 339° |
| 2026-05-07 18:24 | 37.90209 | -8.98678 | 18222 ft | 418 kts | 341° |
| 2026-05-07 18:24 | 37.93041 | -8.99205 | 17719 ft | 408 kts | 359° |
| 2026-05-07 18:24 | 37.95828 | -8.99074 | 17255 ft | 393 kts | 358° |
| 2026-05-07 18:25 | 37.98518 | -8.99071 | 16818 ft | 380 kts | 358° |
| 2026-05-07 18:25 | 38.01121 | -8.99088 | 16398 ft | 368 kts | 358° |
| 2026-05-07 18:25 | 38.03632 | -8.99113 | 15999 ft | 356 kts | 358° |
| 2026-05-07 18:25 | 38.06072 | -8.99140 | 15615 ft | 346 kts | 358° |
| 2026-05-07 18:26 | 38.08442 | -8.99169 | 15246 ft | 336 kts | 358° |
| 2026-05-07 18:26 | 38.10718 | -8.99198 | 14862 ft | 327 kts | 358° |
| 2026-05-07 18:26 | 38.13015 | -8.99247 | 14315 ft | 325 kts | 354° |
| 2026-05-07 18:26 | 38.15135 | -8.99901 | 13883 ft | 314 kts | 332° |
| 2026-05-07 18:27 | 38.17078 | -9.01059 | 13511 ft | 305 kts | 334° |
| 2026-05-07 18:27 | 38.19018 | -9.02120 | 12966 ft | 303 kts | 335° |
| 2026-05-07 18:27 | 38.20958 | -9.03169 | 12361 ft | 303 kts | 335° |
| 2026-05-07 18:27 | 38.22902 | -9.04211 | 11777 ft | 303 kts | 335° |
| 2026-05-07 18:28 | 38.24845 | -9.05250 | 11201 ft | 303 kts | 335° |
| 2026-05-07 18:28 | 38.26793 | -9.06291 | 10633 ft | 303 kts | 335° |
| 2026-05-07 18:28 | 38.28727 | -9.07322 | 10074 ft | 303 kts | 336° |
| 2026-05-07 18:28 | 38.30670 | -9.08359 | 9502 ft | 302 kts | 336° |
| 2026-05-07 18:29 | 38.32609 | -9.09396 | 8898 ft | 302 kts | 336° |
| 2026-05-07 18:29 | 38.34513 | -9.10413 | 8300 ft | 301 kts | 335° |
| 2026-05-07 18:29 | 38.36438 | -9.11443 | 7721 ft | 299 kts | 335° |
| 2026-05-07 18:29 | 38.38344 | -9.12461 | 7218 ft | 295 kts | 335° |
| 2026-05-07 18:30 | 38.40217 | -9.13465 | 6775 ft | 289 kts | 334° |
| 2026-05-07 18:30 | 38.42047 | -9.14445 | 6397 ft | 281 kts | 334° |
| 2026-05-07 18:30 | 38.43830 | -9.15399 | 6015 ft | 274 kts | 334° |
| 2026-05-07 18:30 | 38.45569 | -9.16334 | 5625 ft | 268 kts | 335° |
| 2026-05-07 18:31 | 38.47266 | -9.17244 | 5300 ft | 262 kts | 335° |
| 2026-05-07 18:31 | 38.48930 | -9.18139 | 4962 ft | 258 kts | 335° |
| 2026-05-07 18:31 | 38.50573 | -9.19020 | 4663 ft | 257 kts | 334° |
| 2026-05-07 18:31 | 38.52224 | -9.19907 | 4347 ft | 258 kts | 334° |
| 2026-05-07 18:32 | 38.53873 | -9.20796 | 4065 ft | 256 kts | 335° |
| 2026-05-07 18:32 | 38.55488 | -9.21662 | 4011 ft | 248 kts | 335° |
| 2026-05-07 18:32 | 38.57046 | -9.22502 | 4018 ft | 237 kts | 334° |
| 2026-05-07 18:32 | 38.58555 | -9.23191 | 4014 ft | 225 kts | 348° |
| 2026-05-07 18:33 | 38.60094 | -9.23134 | 3878 ft | 222 kts | 9° |
| 2026-05-07 18:33 | 38.61570 | -9.22503 | 3586 ft | 225 kts | 21° |
| 2026-05-07 18:33 | 38.63004 | -9.21687 | 3291 ft | 226 kts | 20° |
| 2026-05-07 18:33 | 38.64439 | -9.20900 | 3043 ft | 223 kts | 18° |
| 2026-05-07 18:34 | 38.65860 | -9.20147 | 2715 ft | 218 kts | 18° |
| 2026-05-07 18:34 | 38.67200 | -9.19429 | 2429 ft | 197 kts | 18° |
| 2026-05-07 18:34 | 38.68394 | -9.18793 | 2147 ft | 180 kts | 18° |
| 2026-05-07 18:34 | 38.69473 | -9.18215 | 1894 ft | 156 kts | 16° |
| 2026-05-07 18:35 | 38.70416 | -9.17715 | 1695 ft | 142 kts | 17° |
| 2026-05-07 18:35 | 38.71326 | -9.17234 | 1514 ft | 141 kts | 17° |
| 2026-05-07 18:35 | 38.72236 | -9.16740 | 1335 ft | 142 kts | 15° |
| 2026-05-07 18:35 | 38.73153 | -9.16253 | 1135 ft | 142 kts | 18° |
| 2026-05-07 18:36 | 38.74069 | -9.15721 | 1031 ft | 149 kts | 17° |
| 2026-05-07 18:36 | 38.75017 | -9.15224 | 777 ft | 144 kts | 19° |
| 2026-05-07 18:36 | 38.75934 | -9.14754 | 559 ft | 142 kts | 18° |
| 2026-05-07 18:36 | 38.76838 | -9.14275 | 369 ft | 138 kts | 13° |
| 2026-05-07 18:37 | 38.77643 | -9.13861 | 372 ft | 97 kts | 24° |
| 2026-05-07 18:37 | 38.78070 | -9.13627 | 372 ft | 42 kts | 22° |
| 2026-05-07 18:37 | 38.78224 | -9.13505 | 370 ft | 17 kts | 80° |
| 2026-05-07 18:37 | 38.78182 | -9.13459 | 369 ft | 10 kts | 167° |
| 2026-05-07 18:38 | 38.78155 | -9.13452 | 365 ft | 0 kts | 170° |
| 2026-05-07 18:39 | 38.78147 | -9.13450 | 365 ft | 4 kts | 169° |
| 2026-05-07 18:40 | 38.78090 | -9.13436 | 363 ft | 12 kts | 167° |
| 2026-05-07 18:40 | 38.77968 | -9.13402 | 356 ft | 20 kts | 168° |
| 2026-05-07 18:40 | 38.77908 | -9.13385 | 353 ft | 0 kts | 167° |
| 2026-05-07 18:42 | 38.77904 | -9.13384 | 353 ft | 3 kts | 167° |
| 2026-05-07 18:42 | 38.77862 | -9.13372 | 351 ft | 10 kts | 167° |
| 2026-05-07 18:43 | 38.77773 | -9.13349 | 350 ft | 17 kts | 169° |
| 2026-05-07 18:43 | 38.77642 | -9.13320 | 340 ft | 21 kts | 176° |
| 2026-05-07 18:43 | 38.77511 | -9.13303 | 338 ft | 17 kts | 170° |
| 2026-05-07 18:43 | 38.77402 | -9.13270 | 339 ft | 17 kts | 168° |
| 2026-05-07 18:44 | 38.77280 | -9.13247 | 340 ft | 19 kts | 168° |
| 2026-05-07 18:44 | 38.77169 | -9.13217 | 338 ft | 15 kts | 167° |
| 2026-05-07 18:44 | 38.77081 | -9.13193 | 341 ft | 9 kts | 167° |
| 2026-05-07 18:44 | 38.77026 | -9.13176 | 341 ft | 6 kts | 148° |
| 2026-05-07 18:45 | 38.77021 | -9.13125 | 337 ft | 6 kts | 78° |
| 2026-05-07 18:45 | 38.77026 | -9.13096 | 340 ft | 2 kts | 77° |
| 2026-05-07 18:45 | 38.77027 | -9.13094 | 340 ft | 0 kts | 77° |